Kezdőlap
METAR-TAF:

METAR-TAF

Repülőterek :

Sierra Blanca Regional Airport

Ruidoso, Új-Mexikó, Amerikai Egyesült Államok

földrajzi szélesség: 33-28N, földrajzi hosszúság: 105-32W, magasság: 2076 m

Jelenlegi meteorológiai megfigyelések

A jelentés 15 perccel ezelõtt készült, 14:35 UTC
Észak-északnyugati szél 4 kt
Hőmérséklet 24°C
Páratartalom 13%
Légköri nyomás 1017 hPa
Látótávolság: 16.1 km
Derült ég

METAR: KSRR 181435Z AUTO 34004KT 10SM CLR 24/M06 A3004 RMK AO2

Idő: 08:50 (14:50 UTC)


TAF: hiányzik

Meteorológiai megfigyelések és előrejelzések több, mint 4000 repülőtéren (METAR és TAF jelentéseket).

A térképen piros és sárga pontok jelzik az elérhető meteorológiai állomásokat.

Mozgassa az egeret a pont fölött, hogy megjelenjen az állomás neve.

Azután kattintson az időjárási megfigyelések és előrejelzések megtekintéséhez.

A térkép megváltoztatása: kattintson a fekete keresztel jelölt zöld gombra ráközelítéshez, a vonallal jelölt zöld gombra távolításhoz, vagy a zöld nyilakra a szomszédos térképek eléréséhez.


METAR-TAF: